Time;durP1;ratioP1;P1;durP2;ratioP2;P2;SDS_P1;SDS_P2;PMS_P1;PMS_P2;Temp;Humidity;BMP_temperature;BMP_pressure;BME280_temperature;BME280_humidity;BME280_pressure;Samples;Min_cycle;Max_cycle;Signal;HPM_P1;HPM_P2
2023/08/28 00:02:14;;;;;;;79.17;36.03;;;19.30;99.90;;;;;;4435254;27;660826;-69
2023/08/28 00:05:02;;;;;;;82.72;36.45;;;19.20;99.90;;;;;;4459054;27;660934;-68
2023/08/28 00:07:50;;;;;;;80.03;36.83;;;19.10;99.90;;;;;;4423961;27;660992;-68
2023/08/28 00:10:38;;;;;;;73.30;33.37;;;19.00;99.90;;;;;;4446227;28;661694;-68
2023/08/28 00:13:25;;;;;;;67.53;32.73;;;19.10;99.90;;;;;;4461164;27;661523;-68
2023/08/28 00:16:12;;;;;;;63.37;29.87;;;19.00;99.90;;;;;;4440605;27;660520;-69
2023/08/28 00:19:01;;;;;;;68.20;31.13;;;19.00;99.90;;;;;;4455845;27;661244;-68
2023/08/28 00:21:49;;;;;;;66.70;32.43;;;18.90;99.90;;;;;;4430842;27;660796;-68
2023/08/28 00:24:36;;;;;;;60.60;28.70;;;18.90;99.90;;;;;;4453114;28;660824;-68
2023/08/28 00:27:23;;;;;;;50.55;25.10;;;18.80;99.90;;;;;;4430736;27;660773;-67
2023/08/28 00:30:11;;;;;;;54.37;25.13;;;18.80;99.90;;;;;;4448429;27;660724;-67
2023/08/28 00:32:58;;;;;;;91.20;34.03;;;18.80;99.90;;;;;;4433977;27;661368;-67
2023/08/28 00:35:47;;;;;;;96.33;37.87;;;18.90;99.90;;;;;;4457490;27;661201;-68
2023/08/28 00:38:34;;;;;;;79.10;33.60;;;18.80;99.90;;;;;;4438402;27;661727;-68
2023/08/28 00:41:21;;;;;;;63.60;30.40;;;18.80;99.90;;;;;;4459516;27;660572;-68
2023/08/28 00:44:09;;;;;;;64.67;28.50;;;18.80;99.90;;;;;;4439614;27;660886;-67
2023/08/28 00:46:56;;;;;;;46.93;21.73;;;18.80;99.90;;;;;;4459099;27;661662;-68
2023/08/28 00:49:43;;;;;;;43.57;19.90;;;18.70;99.90;;;;;;4439527;27;660325;-67
2023/08/28 00:52:32;;;;;;;31.77;18.20;;;18.70;99.90;;;;;;4460564;27;660763;-67
2023/08/28 00:55:19;;;;;;;32.40;19.00;;;18.60;99.90;;;;;;4437895;27;661026;-68
2023/08/28 00:58:06;;;;;;;29.13;14.53;;;18.50;99.90;;;;;;4458999;27;660680;-68
2023/08/28 01:00:53;;;;;;;24.40;12.30;;;18.50;99.90;;;;;;4436707;27;661822;-68
2023/08/28 01:03:41;;;;;;;22.43;11.00;;;18.40;99.90;;;;;;4463995;27;660798;-67
2023/08/28 01:06:31;;;;;;;17.53;9.30;;;18.30;99.90;;;;;;4436310;27;661053;-67
2023/08/28 01:09:23;;;;;;;15.20;7.05;;;18.30;99.90;;;;;;4433327;27;659790;-67
2023/08/28 01:12:13;;;;;;;15.17;6.70;;;18.20;99.90;;;;;;4441500;27;660173;-67
2023/08/28 01:15:03;;;;;;;12.70;6.73;;;18.10;99.90;;;;;;4437005;27;660703;-67
2023/08/28 01:17:53;;;;;;;16.37;6.57;;;18.00;99.90;;;;;;4435694;27;660346;-68
2023/08/28 01:20:40;;;;;;;15.87;5.27;;;18.00;99.90;;;;;;4435329;27;660471;-67
2023/08/28 01:23:28;;;;;;;15.33;5.43;;;17.90;99.90;;;;;;4439321;27;659988;-68
2023/08/28 01:26:17;;;;;;;15.50;6.35;;;17.80;99.90;;;;;;4458288;27;660252;-67
2023/08/28 01:29:04;;;;;;;17.23;6.27;;;17.80;99.90;;;;;;4438348;27;660664;-68
2023/08/28 01:31:51;;;;;;;14.67;6.60;;;17.70;99.90;;;;;;4457204;27;660078;-67
2023/08/28 01:34:39;;;;;;;19.60;7.77;;;17.70;99.90;;;;;;4436015;27;659734;-67
2023/08/28 01:37:27;;;;;;;20.70;8.43;;;17.80;99.90;;;;;;4457635;27;659784;-67
2023/08/28 01:40:15;;;;;;;22.67;9.57;;;17.70;99.90;;;;;;4440175;27;659510;-67
2023/08/28 01:43:03;;;;;;;17.43;8.20;;;17.60;99.90;;;;;;4458274;27;660318;-67
2023/08/28 01:45:51;;;;;;;16.87;8.13;;;17.60;99.90;;;;;;4430132;27;659885;-67
2023/08/28 01:48:43;;;;;;;21.30;8.67;;;17.60;99.90;;;;;;4438871;27;659580;-67
2023/08/28 01:51:30;;;;;;;16.07;8.40;;;17.50;99.90;;;;;;4434646;27;660197;-67
2023/08/28 01:54:17;;;;;;;18.27;7.73;;;17.40;99.90;;;;;;4440264;27;659696;-67
2023/08/28 01:57:05;;;;;;;15.00;6.70;;;17.30;99.90;;;;;;4459228;27;660582;-68
2023/08/28 01:59:54;;;;;;;13.50;5.90;;;17.30;99.90;;;;;;4438577;27;660507;-67
2023/08/28 02:02:41;;;;;;;13.33;6.30;;;17.30;99.90;;;;;;4455151;27;659359;-67
2023/08/28 02:05:28;;;;;;;12.97;6.90;;;17.20;99.90;;;;;;4440223;27;659590;-67
2023/08/28 02:08:16;;;;;;;7.73;4.63;;;17.20;99.90;;;;;;4459084;27;660379;-67
2023/08/28 02:11:03;;;;;;;8.27;4.00;;;17.20;99.90;;;;;;4435521;27;659050;-67
2023/08/28 02:13:50;;;;;;;9.17;3.40;;;17.20;99.90;;;;;;4452892;27;659462;-67
2023/08/28 02:16:39;;;;;;;6.83;3.50;;;17.20;99.90;;;;;;4452364;27;659094;-68
2023/08/28 02:19:26;;;;;;;7.20;2.47;;;17.20;99.90;;;;;;4459606;27;659160;-68
2023/08/28 02:22:14;;;;;;;5.50;2.40;;;17.20;99.90;;;;;;4436805;27;659475;-68
2023/08/28 02:25:01;;;;;;;3.97;2.10;;;17.20;99.90;;;;;;4460603;27;659170;-68
2023/08/28 02:27:48;;;;;;;2.93;1.80;;;17.20;99.90;;;;;;4436204;27;658693;-68
2023/08/28 02:30:35;;;;;;;2.53;1.70;;;17.20;99.90;;;;;;4460192;27;659830;-68
2023/08/28 02:33:24;;;;;;;2.33;1.40;;;17.30;99.90;;;;;;4438541;27;659313;-68
2023/08/28 02:36:11;;;;;;;2.70;1.53;;;17.20;99.90;;;;;;4459221;27;658967;-68
2023/08/28 02:38:59;;;;;;;1.80;1.20;;;17.10;99.90;;;;;;4431565;27;658966;-68
2023/08/28 02:41:46;;;;;;;1.93;1.10;;;17.20;99.90;;;;;;4458235;27;658352;-68
2023/08/28 02:44:33;;;;;;;1.90;0.93;;;17.10;99.90;;;;;;4439260;27;658477;-68
2023/08/28 02:47:20;;;;;;;1.27;0.90;;;17.20;99.90;;;;;;4463468;27;659447;-68
2023/08/28 02:50:10;;;;;;;3.50;0.90;;;17.20;99.90;;;;;;4441988;27;659092;-68
2023/08/28 02:52:57;;;;;;;4.57;1.00;;;17.20;99.90;;;;;;4464319;27;658819;-68
2023/08/28 02:55:44;;;;;;;3.50;1.10;;;17.20;99.90;;;;;;4439482;27;658870;-68
2023/08/28 02:58:31;;;;;;;1.33;0.80;;;17.20;99.90;;;;;;4454328;27;658181;-68
2023/08/28 03:01:19;;;;;;;1.83;0.80;;;17.20;99.90;;;;;;4440321;27;658770;-68
2023/08/28 03:04:07;;;;;;;1.53;0.90;;;17.10;99.90;;;;;;4460320;27;658419;-68
2023/08/28 03:06:55;;;;;;;2.20;0.73;;;17.20;99.90;;;;;;4439907;27;658570;-68
2023/08/28 03:09:43;;;;;;;1.33;0.70;;;17.20;99.90;;;;;;4440935;27;658572;-68
2023/08/28 03:12:30;;;;;;;3.43;0.90;;;17.20;99.90;;;;;;4454971;27;659092;-68
2023/08/28 03:15:18;;;;;;;2.23;0.80;;;17.10;99.90;;;;;;4453849;27;658852;-68
2023/08/28 03:18:05;;;;;;;2.80;1.00;;;17.10;99.90;;;;;;4459304;27;659652;-69
2023/08/28 03:20:52;;;;;;;3.10;1.67;;;17.10;99.90;;;;;;4435630;27;658903;-68
2023/08/28 03:23:41;;;;;;;2.27;1.40;;;17.10;99.90;;;;;;4456819;27;659444;-68
2023/08/28 03:26:29;;;;;;;3.70;1.40;;;16.90;99.90;;;;;;4440329;27;658615;-68
2023/08/28 03:29:16;;;;;;;2.63;1.83;;;16.90;99.90;;;;;;4456351;27;658339;-68
2023/08/28 03:32:04;;;;;;;8.40;1.55;;;17.00;99.90;;;;;;4434133;27;659183;-68
2023/08/28 03:34:52;;;;;;;4.88;1.70;;;17.00;99.90;;;;;;4458072;27;658946;-68
2023/08/28 03:37:39;;;;;;;5.07;2.20;;;17.10;99.90;;;;;;4440236;27;659870;-69
2023/08/28 03:40:27;;;;;;;7.27;1.93;;;17.10;99.90;;;;;;4458984;27;659945;-69
2023/08/28 03:43:15;;;;;;;5.07;2.10;;;17.10;99.90;;;;;;4434405;27;659746;-68
2023/08/28 03:46:03;;;;;;;5.73;2.00;;;17.10;99.90;;;;;;4458043;27;658749;-68
2023/08/28 03:48:50;;;;;;;6.00;2.50;;;17.10;99.90;;;;;;4459872;27;659487;-69
2023/08/28 03:51:37;;;;;;;8.07;2.30;;;17.10;99.90;;;;;;4440049;27;658796;-68
2023/08/28 03:54:25;;;;;;;7.37;2.33;;;17.10;99.90;;;;;;4460639;27;659377;-68
2023/08/28 03:57:13;;;;;;;3.00;2.20;;;17.10;99.90;;;;;;4462437;28;659196;-68
2023/08/28 04:00:00;;;;;;;9.10;2.60;;;17.10;99.90;;;;;;4435580;27;659904;-68
2023/08/28 04:02:48;;;;;;;9.10;2.40;;;17.10;99.90;;;;;;4436484;27;659131;-68
2023/08/28 04:05:37;;;;;;;6.40;2.50;;;17.00;99.90;;;;;;4457728;27;659854;-68
2023/08/28 04:08:25;;;;;;;9.30;2.60;;;17.00;99.90;;;;;;4434749;27;660002;-68
2023/08/28 04:11:12;;;;;;;6.27;2.80;;;16.90;99.90;;;;;;4459590;27;658672;-68
2023/08/28 04:14:01;;;;;;;5.90;3.07;;;16.80;99.90;;;;;;4464453;27;658960;-68
2023/08/28 04:16:48;;;;;;;7.77;2.50;;;16.80;99.90;;;;;;4440207;27;659415;-68
2023/08/28 04:19:37;;;;;;;4.73;2.40;;;16.80;99.90;;;;;;4458755;27;658799;-68
2023/08/28 04:22:24;;;;;;;7.50;3.00;;;16.80;99.90;;;;;;4441820;27;659439;-68
2023/08/28 04:25:11;;;;;;;7.13;2.33;;;16.90;99.90;;;;;;4459161;27;658313;-68
2023/08/28 04:27:59;;;;;;;6.27;2.30;;;16.90;99.90;;;;;;4440825;27;658428;-68
2023/08/28 04:30:47;;;;;;;5.47;2.20;;;16.90;99.90;;;;;;4459785;27;659432;-68
2023/08/28 04:33:34;;;;;;;4.03;2.33;;;16.90;99.90;;;;;;4435423;27;659002;-68
2023/08/28 04:36:21;;;;;;;8.80;2.80;;;16.90;99.90;;;;;;4458500;27;659473;-68
2023/08/28 04:39:09;;;;;;;3.80;2.20;;;17.00;99.90;;;;;;4439113;27;659952;-68
2023/08/28 04:41:56;;;;;;;6.27;1.97;;;16.90;99.90;;;;;;4458896;27;661134;-68
2023/08/28 04:44:43;;;;;;;4.83;2.30;;;16.80;99.90;;;;;;4441542;27;658452;-68
2023/08/28 04:47:32;;;;;;;4.33;2.37;;;16.80;99.90;;;;;;4467017;27;659652;-68
2023/08/28 04:50:19;;;;;;;5.43;2.33;;;16.90;99.90;;;;;;4438935;27;660320;-68
2023/08/28 04:53:06;;;;;;;6.33;2.47;;;16.90;99.90;;;;;;4462868;27;660800;-68
2023/08/28 04:55:55;;;;;;;6.15;2.40;;;16.80;99.90;;;;;;4440875;27;658883;-68
2023/08/28 04:58:42;;;;;;;5.00;2.23;;;16.90;99.90;;;;;;4462265;27;658965;-67
2023/08/28 05:01:29;;;;;;;5.40;1.97;;;16.80;99.90;;;;;;4439441;27;660031;-68
2023/08/28 05:04:18;;;;;;;3.43;2.10;;;16.90;99.90;;;;;;4459250;27;658275;-68
2023/08/28 05:07:07;;;;;;;8.33;2.03;;;16.90;99.90;;;;;;4435396;27;659144;-68
2023/08/28 05:09:54;;;;;;;2.80;1.80;;;16.90;99.90;;;;;;4433638;27;659011;-68
2023/08/28 05:12:41;;;;;;;3.60;1.60;;;17.00;99.90;;;;;;4461044;27;658738;-67
2023/08/28 05:15:29;;;;;;;5.90;2.10;;;16.90;99.90;;;;;;4434704;27;658526;-67
2023/08/28 05:18:16;;;;;;;2.37;1.90;;;16.90;99.90;;;;;;4461208;27;659747;-68
2023/08/28 05:21:05;;;;;;;3.33;1.97;;;16.90;99.90;;;;;;4441716;27;658729;-68
2023/08/28 05:23:52;;;;;;;4.57;1.80;;;16.90;99.90;;;;;;4444010;27;658898;-67
2023/08/28 05:26:40;;;;;;;5.23;2.20;;;16.90;99.90;;;;;;4463855;27;659480;-68
2023/08/28 05:29:27;;;;;;;2.37;1.80;;;17.00;99.90;;;;;;4462650;27;659303;-70
2023/08/28 05:32:15;;;;;;;4.07;1.90;;;17.00;99.90;;;;;;4461339;27;659623;-70
2023/08/28 05:35:03;;;;;;;1.93;1.73;;;17.00;99.90;;;;;;4461104;27;659003;-70
2023/08/28 05:37:52;;;;;;;3.30;2.13;;;16.90;99.90;;;;;;4432581;27;660064;-69
2023/08/28 05:40:39;;;;;;;5.27;2.00;;;16.90;99.90;;;;;;4433724;27;659183;-69
2023/08/28 05:43:26;;;;;;;4.73;2.00;;;16.90;99.90;;;;;;4456836;27;659373;-69
2023/08/28 05:46:14;;;;;;;4.87;1.87;;;16.90;99.90;;;;;;4438143;27;659017;-70
2023/08/28 05:49:01;;;;;;;3.77;1.83;;;17.00;99.90;;;;;;4452841;27;659632;-70
2023/08/28 05:51:48;;;;;;;6.17;2.20;;;17.10;99.90;;;;;;4438254;27;660215;-71
2023/08/28 05:54:37;;;;;;;6.87;2.70;;;17.10;99.90;;;;;;4458589;27;659746;-70
2023/08/28 05:57:24;;;;;;;6.37;2.60;;;17.20;99.90;;;;;;4446516;27;659156;-69
2023/08/28 06:00:14;;;;;;;4.33;2.27;;;17.20;99.90;;;;;;4462138;27;658695;-70
2023/08/28 06:03:01;;;;;;;5.93;2.43;;;17.10;99.90;;;;;;4433650;27;659526;-69
2023/08/28 06:05:48;;;;;;;4.90;2.00;;;17.10;99.90;;;;;;4445111;27;658943;-69
2023/08/28 06:08:35;;;;;;;3.47;2.40;;;17.20;99.90;;;;;;4465874;27;659068;-69
2023/08/28 06:11:24;;;;;;;2.63;1.90;;;17.20;99.90;;;;;;4440748;27;658592;-69
2023/08/28 06:14:11;;;;;;;4.13;2.50;;;17.20;99.90;;;;;;4456995;27;658863;-69
2023/08/28 06:16:58;;;;;;;3.50;2.20;;;17.30;99.90;;;;;;4436264;27;658983;-69
2023/08/28 06:19:45;;;;;;;4.57;2.40;;;17.30;99.90;;;;;;4451432;27;659635;-69
2023/08/28 06:22:33;;;;;;;4.90;2.37;;;17.40;99.90;;;;;;4432465;27;658617;-69
2023/08/28 06:25:20;;;;;;;5.30;2.70;;;17.60;99.90;;;;;;4459331;27;659478;-69
2023/08/28 06:28:09;;;;;;;2.70;2.10;;;17.60;99.90;;;;;;4454593;27;658662;-69
2023/08/28 06:30:56;;;;;;;6.87;2.60;;;17.70;99.90;;;;;;4454742;28;659413;-69
2023/08/28 06:33:44;;;;;;;4.20;2.60;;;17.80;99.90;;;;;;4434081;27;658655;-69
2023/08/28 06:36:31;;;;;;;5.30;2.67;;;17.80;99.90;;;;;;4455422;27;658707;-69
2023/08/28 06:39:19;;;;;;;4.77;2.43;;;17.60;99.90;;;;;;4437485;27;659585;-69
2023/08/28 06:42:06;;;;;;;5.20;2.97;;;17.60;99.90;;;;;;4460450;27;659007;-69
2023/08/28 06:44:55;;;;;;;6.73;2.57;;;17.50;99.90;;;;;;4436723;27;658782;-69
2023/08/28 06:47:43;;;;;;;5.70;3.43;;;17.50;99.90;;;;;;4435629;27;658908;-69
2023/08/28 06:50:30;;;;;;;7.00;4.30;;;17.70;99.90;;;;;;4451527;27;660083;-70
2023/08/28 06:53:17;;;;;;;7.03;4.00;;;17.70;99.90;;;;;;4450916;27;658596;-69
2023/08/28 06:56:05;;;;;;;6.67;4.23;;;17.80;99.90;;;;;;4453842;28;660517;-69
2023/08/28 06:58:52;;;;;;;9.97;4.37;;;17.70;99.90;;;;;;4449520;27;658806;-69
2023/08/28 07:01:41;;;;;;;5.93;4.43;;;17.50;99.90;;;;;;4460860;27;660386;-69
2023/08/28 07:04:29;;;;;;;8.93;4.23;;;17.50;99.90;;;;;;4426767;28;659260;-69
2023/08/28 07:07:17;;;;;;;6.87;3.77;;;17.40;99.90;;;;;;4455228;27;659063;-69
2023/08/28 07:10:06;;;;;;;5.77;4.00;;;17.40;99.90;;;;;;4413891;28;658654;-69
2023/08/28 07:12:53;;;;;;;6.33;3.80;;;17.40;99.90;;;;;;4428273;27;658540;-69
2023/08/28 07:15:56;;;;;;;7.47;4.07;;;17.40;99.90;;;;;;4451296;28;660439;-69
2023/08/28 07:18:44;;;;;;;9.03;3.60;;;17.40;99.90;;;;;;4410234;28;658927;-69
2023/08/28 07:21:31;;;;;;;8.17;3.97;;;17.50;99.90;;;;;;4446281;27;658404;-70
2023/08/28 07:24:19;;;;;;;11.33;4.50;;;17.60;99.90;;;;;;4429601;27;658556;-70
2023/08/28 07:27:06;;;;;;;7.60;4.07;;;17.60;99.90;;;;;;4452389;27;661720;-69
2023/08/28 07:29:53;;;;;;;9.50;4.40;;;17.60;99.90;;;;;;4436916;27;658775;-68
2023/08/28 07:32:40;;;;;;;6.10;4.10;;;17.60;99.90;;;;;;4459506;27;659450;-69
2023/08/28 07:35:34;;;;;;;10.20;4.90;;;17.60;99.90;;;;;;4435758;27;658510;-69
2023/08/28 07:38:21;;;;;;;12.73;5.17;;;17.50;99.90;;;;;;4438251;27;659818;-69
2023/08/28 07:41:08;;;;;;;8.87;5.37;;;17.50;99.90;;;;;;4436305;28;659427;-70
2023/08/28 07:43:55;;;;;;;10.30;5.20;;;17.70;99.90;;;;;;4449582;28;659649;-70
2023/08/28 07:46:43;;;;;;;9.90;5.00;;;17.70;99.90;;;;;;4432575;28;659769;-69
2023/08/28 07:49:30;;;;;;;10.57;5.40;;;17.70;99.90;;;;;;4460939;27;659615;-70
2023/08/28 07:52:19;;;;;;;10.60;5.00;;;17.70;99.90;;;;;;4445979;28;660254;-69
2023/08/28 07:55:07;;;;;;;16.07;5.47;;;17.80;99.90;;;;;;4451797;27;659834;-69
2023/08/28 07:57:55;;;;;;;12.10;5.37;;;17.80;99.90;;;;;;4435866;28;659711;-69
2023/08/28 08:00:43;;;;;;;10.20;4.93;;;17.80;99.90;;;;;;4447025;27;659769;-69
2023/08/28 08:03:31;;;;;;;10.37;4.23;;;17.90;99.90;;;;;;4453289;27;659831;-69
2023/08/28 08:06:18;;;;;;;8.93;4.17;;;17.90;99.90;;;;;;4426718;27;660097;-69
2023/08/28 08:09:07;;;;;;;6.90;4.03;;;17.90;99.90;;;;;;4458971;27;659304;-69
2023/08/28 08:11:54;;;;;;;7.03;4.10;;;17.90;99.90;;;;;;4441318;27;659568;-69
2023/08/28 08:14:41;;;;;;;5.73;3.93;;;17.90;99.90;;;;;;4458403;27;659003;-69
2023/08/28 08:17:29;;;;;;;7.73;3.93;;;18.00;99.90;;;;;;4431240;27;658657;-69
2023/08/28 08:20:16;;;;;;;10.47;4.40;;;18.10;99.90;;;;;;4449182;27;658903;-69
2023/08/28 08:23:04;;;;;;;4.97;3.63;;;18.00;99.90;;;;;;4431771;27;659578;-69
2023/08/28 08:25:54;;;;;;;5.87;4.03;;;18.10;99.90;;;;;;4454525;28;660109;-69
2023/08/28 08:28:41;;;;;;;5.40;3.97;;;18.10;99.90;;;;;;4430520;27;658515;-69
2023/08/28 08:31:28;;;;;;;4.40;3.67;;;18.20;99.90;;;;;;4433015;27;658940;-70
2023/08/28 08:34:15;;;;;;;4.77;3.60;;;18.30;99.90;;;;;;4456559;28;659458;-69
2023/08/28 08:37:02;;;;;;;5.10;3.90;;;18.40;99.90;;;;;;4438806;27;658702;-68
2023/08/28 08:39:50;;;;;;;4.90;4.13;;;18.40;99.90;;;;;;4454005;27;660190;-69
2023/08/28 08:42:39;;;;;;;8.00;4.30;;;18.40;99.90;;;;;;4454461;27;658826;-69
2023/08/28 08:45:28;;;;;;;5.83;4.17;;;18.50;99.90;;;;;;4461877;27;658867;-69
2023/08/28 08:48:20;;;;;;;7.03;4.23;;;18.60;99.90;;;;;;4431906;27;660139;-69
2023/08/28 08:51:08;;;;;;;4.40;4.00;;;18.60;99.90;;;;;;4451070;27;658925;-67
2023/08/28 08:53:59;;;;;;;6.50;4.00;;;18.80;99.90;;;;;;4458384;27;659017;-71
2023/08/28 08:56:47;;;;;;;4.83;3.53;;;19.10;99.90;;;;;;4436877;27;659341;-69
2023/08/28 08:59:35;;;;;;;5.10;3.87;;;19.30;99.90;;;;;;4443194;27;658443;-68
2023/08/28 09:02:23;;;;;;;4.80;3.43;;;19.60;99.90;;;;;;4440197;27;658290;-68
2023/08/28 09:05:10;;;;;;;8.57;3.50;;;19.80;99.90;;;;;;4458531;27;660869;-68
2023/08/28 09:07:58;;;;;;;5.53;3.10;;;19.90;99.90;;;;;;4447193;27;659141;-69
2023/08/28 09:10:45;;;;;;;6.33;3.13;;;19.90;99.90;;;;;;4450691;28;660223;-68
2023/08/28 09:13:33;;;;;;;5.10;3.10;;;19.70;99.90;;;;;;4441330;27;660751;-68
2023/08/28 09:16:21;;;;;;;4.50;3.17;;;19.50;99.90;;;;;;4457732;27;660078;-69
2023/08/28 09:19:09;;;;;;;5.13;3.50;;;19.50;99.90;;;;;;4438196;27;659181;-69
2023/08/28 09:21:56;;;;;;;4.47;3.50;;;19.40;99.90;;;;;;4454427;27;658959;-68
2023/08/28 09:24:43;;;;;;;4.43;3.00;;;19.40;99.90;;;;;;4441934;27;658546;-69
2023/08/28 09:27:30;;;;;;;6.63;3.00;;;19.40;99.90;;;;;;4459098;28;658653;-69
2023/08/28 09:30:27;;;;;;;3.50;3.00;;;19.50;99.90;;;;;;4423454;28;658877;-71
2023/08/28 09:33:16;;;;;;;4.03;2.97;;;19.60;99.90;;;;;;4407841;27;659978;-73
2023/08/28 09:36:04;;;;;;;3.73;2.93;;;19.70;99.90;;;;;;4440766;27;659618;-71
2023/08/28 09:38:51;;;;;;;3.43;2.90;;;19.70;99.90;;;;;;4460145;27;658566;-73
2023/08/28 09:41:42;;;;;;;5.57;3.60;;;19.90;99.90;;;;;;4439580;27;659156;-72
2023/08/28 09:44:29;;;;;;;6.30;3.10;;;20.00;99.90;;;;;;4439973;27;659178;-73
2023/08/28 09:47:21;;;;;;;4.40;3.10;;;20.00;99.90;;;;;;4459786;27;659362;-72
2023/08/28 09:50:10;;;;;;;6.13;3.50;;;20.10;99.90;;;;;;4414933;27;658770;-72
2023/08/28 09:53:07;;;;;;;5.37;3.17;;;20.10;99.90;;;;;;4438413;27;658563;-72
2023/08/28 09:55:54;;;;;;;3.93;3.03;;;20.20;99.90;;;;;;4438061;27;659043;-73
2023/08/28 09:58:41;;;;;;;6.77;2.97;;;20.20;99.90;;;;;;4456058;27;659621;-71
2023/08/28 10:01:32;;;;;;;3.93;3.00;;;20.30;99.90;;;;;;4435945;27;659629;-72
2023/08/28 10:04:20;;;;;;;4.10;3.33;;;20.20;99.90;;;;;;4436378;27;659228;-71
2023/08/28 10:07:09;;;;;;;3.37;3.07;;;20.40;99.90;;;;;;4442297;27;658632;-71
2023/08/28 10:09:57;;;;;;;4.77;3.20;;;20.60;99.90;;;;;;4452901;27;658496;-72
2023/08/28 10:12:44;;;;;;;3.37;3.03;;;20.80;99.90;;;;;;4432590;27;659107;-72
2023/08/28 10:15:32;;;;;;;4.77;2.87;;;21.00;99.90;;;;;;4456569;27;658660;-72
2023/08/28 10:18:23;;;;;;;3.97;2.90;;;21.00;99.90;;;;;;4433847;27;659540;-72
2023/08/28 10:21:10;;;;;;;4.03;2.80;;;20.90;99.90;;;;;;4433708;27;659367;-71
2023/08/28 10:23:59;;;;;;;4.30;2.93;;;20.90;99.90;;;;;;4445986;27;658489;-70
2023/08/28 10:26:47;;;;;;;4.17;3.00;;;20.80;99.90;;;;;;4464187;27;659078;-72
2023/08/28 10:29:35;;;;;;;4.97;3.50;;;20.70;99.90;;;;;;4440370;27;658940;-72
2023/08/28 10:32:22;;;;;;;5.07;3.57;;;20.40;99.90;;;;;;4454028;27;658904;-70
2023/08/28 10:35:10;;;;;;;3.83;3.43;;;20.30;99.90;;;;;;4457084;28;659330;-71
2023/08/28 10:37:57;;;;;;;5.30;3.70;;;20.20;99.90;;;;;;4434642;27;659321;-70
2023/08/28 10:40:46;;;;;;;5.57;3.60;;;20.20;99.90;;;;;;4449499;28;660139;-72
2023/08/28 10:43:34;;;;;;;5.03;4.20;;;20.30;99.90;;;;;;4436866;27;658906;-71
2023/08/28 10:46:21;;;;;;;5.67;4.20;;;20.50;99.90;;;;;;4460459;27;658981;-72
2023/08/28 10:49:08;;;;;;;6.47;4.40;;;20.60;99.90;;;;;;4439805;27;658976;-71
2023/08/28 10:52:01;;;;;;;4.37;3.87;;;20.70;99.90;;;;;;4452301;28;659501;-71
2023/08/28 10:54:48;;;;;;;4.37;3.93;;;21.00;99.90;;;;;;4420106;27;658390;-71
2023/08/28 10:57:40;;;;;;;7.97;4.27;;;21.20;99.90;;;;;;4458356;27;659599;-71
2023/08/28 11:00:28;;;;;;;5.60;3.90;;;21.20;99.90;;;;;;4427042;27;658639;-71
2023/08/28 11:03:17;;;;;;;6.50;3.93;;;21.10;99.90;;;;;;4431411;27;659778;-71
2023/08/28 11:06:37;;;;;;;5.63;4.40;;;20.90;99.90;;;;;;4435897;27;660727;-70
2023/08/28 11:09:34;;;;;;;5.80;4.27;;;20.90;99.90;;;;;;4435015;27;659366;-71
2023/08/28 11:12:26;;;;;;;8.15;4.30;;;20.80;99.90;;;;;;4433478;27;659125;-70
2023/08/28 11:15:15;;;;;;;7.17;4.30;;;20.60;99.90;;;;;;4411434;27;658900;-72
2023/08/28 11:18:20;;;;;;;4.70;3.80;;;20.50;99.90;;;;;;4459144;28;658197;-71
2023/08/28 11:21:07;;;;;;;6.40;3.87;;;20.40;99.90;;;;;;4453410;27;658448;-69
2023/08/28 11:23:55;;;;;;;8.57;3.70;;;20.40;99.90;;;;;;4462524;27;659196;-71
2023/08/28 11:26:44;;;;;;;4.93;3.80;;;20.40;99.90;;;;;;4455313;27;658444;-71
2023/08/28 11:29:31;;;;;;;5.23;3.60;;;20.60;99.90;;;;;;4439525;27;659299;-71
2023/08/28 11:32:20;;;;;;;4.10;3.70;;;20.70;99.90;;;;;;4435418;28;658834;-70
2023/08/28 11:35:09;;;;;;;6.20;4.00;;;20.80;99.90;;;;;;4450960;27;659149;-70
2023/08/28 11:37:56;;;;;;;4.67;3.80;;;20.80;99.90;;;;;;4455434;28;659214;-71
2023/08/28 11:40:43;;;;;;;4.33;3.70;;;20.80;99.90;;;;;;4436404;27;659021;-70
2023/08/28 11:43:34;;;;;;;4.83;3.50;;;20.80;99.90;;;;;;4452623;27;659484;-71
2023/08/28 11:46:21;;;;;;;5.10;3.20;;;20.80;99.90;;;;;;4432905;27;659708;-70
2023/08/28 11:49:11;;;;;;;4.43;3.57;;;20.60;99.90;;;;;;4438882;27;659742;-70
2023/08/28 11:51:58;;;;;;;4.73;3.67;;;20.70;99.90;;;;;;4431189;28;658546;-70
2023/08/28 11:54:45;;;;;;;4.70;3.90;;;20.70;99.90;;;;;;4453048;27;659139;-70
2023/08/28 11:57:33;;;;;;;5.03;4.00;;;20.70;99.90;;;;;;4440757;28;658399;-69
2023/08/28 12:00:20;;;;;;;5.00;4.10;;;20.70;99.90;;;;;;4458932;28;658824;-70
2023/08/28 12:03:08;;;;;;;4.77;3.60;;;20.70;99.90;;;;;;4436095;28;658369;-69
2023/08/28 12:06:06;;;;;;;6.27;4.17;;;20.80;99.90;;;;;;4451807;27;660174;-70
2023/08/28 12:08:53;;;;;;;6.17;4.37;;;20.90;99.90;;;;;;4431046;28;659137;-71
2023/08/28 12:11:40;;;;;;;5.27;4.20;;;21.00;99.90;;;;;;4457464;27;658950;-69
2023/08/28 12:14:27;;;;;;;5.43;4.13;;;21.20;99.90;;;;;;4430791;27;659090;-69
2023/08/28 12:17:15;;;;;;;5.93;4.90;;;21.30;99.90;;;;;;4460524;28;658870;-70
2023/08/28 12:20:05;;;;;;;5.53;5.00;;;21.20;99.90;;;;;;4434717;28;659409;-70
2023/08/28 12:22:56;;;;;;;6.97;5.67;;;21.20;99.90;;;;;;4452036;28;658484;-70
2023/08/28 12:25:43;;;;;;;12.00;7.17;;;21.30;99.90;;;;;;4434151;28;658340;-71
2023/08/28 12:28:31;;;;;;;11.23;7.70;;;21.50;99.90;;;;;;4454117;28;661053;-68
2023/08/28 12:31:26;;;;;;;10.57;7.57;;;21.70;99.90;;;;;;4440893;27;659752;-70
2023/08/28 12:34:13;;;;;;;7.80;6.10;;;21.90;99.90;;;;;;4413366;27;661222;-70
2023/08/28 12:37:07;;;;;;;7.30;6.20;;;22.00;99.90;;;;;;4463143;27;659406;-71
2023/08/28 12:39:55;;;;;;;7.30;6.10;;;22.10;99.90;;;;;;4428582;27;659406;-70
2023/08/28 12:42:42;;;;;;;8.53;5.97;;;21.90;99.90;;;;;;4433851;27;658053;-70
2023/08/28 12:45:30;;;;;;;7.90;5.70;;;21.80;99.90;;;;;;4461340;27;660177;-71
2023/08/28 12:48:18;;;;;;;6.87;5.60;;;21.90;99.90;;;;;;4440980;27;658743;-69
2023/08/28 12:51:05;;;;;;;10.13;5.50;;;21.90;99.90;;;;;;4455552;27;659271;-70
2023/08/28 12:53:52;;;;;;;8.80;4.90;;;21.90;99.90;;;;;;4449560;27;660490;-70
2023/08/28 12:56:41;;;;;;;6.43;4.77;;;21.90;99.90;;;;;;4459919;27;660531;-70
2023/08/28 12:59:28;;;;;;;7.70;5.00;;;21.70;99.90;;;;;;4437858;27;658852;-71
2023/08/28 13:02:16;;;;;;;9.30;5.17;;;21.50;99.90;;;;;;4455813;27;659865;-69
2023/08/28 13:05:03;;;;;;;4.83;4.33;;;21.30;99.90;;;;;;4436966;27;658630;-69
2023/08/28 13:07:50;;;;;;;9.33;4.60;;;21.20;99.90;;;;;;4459696;27;659568;-72
2023/08/28 13:10:38;;;;;;;5.93;4.70;;;21.00;99.90;;;;;;4433736;27;658540;-72
2023/08/28 13:13:26;;;;;;;13.30;5.00;;;20.90;99.90;;;;;;4459177;27;659430;-72
2023/08/28 13:16:14;;;;;;;6.73;4.80;;;20.90;99.90;;;;;;4428955;27;660633;-71
2023/08/28 13:19:01;;;;;;;7.67;4.13;;;20.90;99.90;;;;;;4457012;27;659662;-72
2023/08/28 13:21:52;;;;;;;12.03;4.90;;;20.90;99.90;;;;;;4435891;27;659956;-72
2023/08/28 13:24:40;;;;;;;7.13;4.50;;;20.90;99.90;;;;;;4428757;27;660415;-72
2023/08/28 13:27:27;;;;;;;6.67;4.40;;;20.90;99.90;;;;;;4447932;27;658520;-72
2023/08/28 13:30:16;;;;;;;4.97;3.73;;;20.90;99.90;;;;;;4457087;27;659386;-72
2023/08/28 13:33:04;;;;;;;7.90;3.87;;;20.90;99.90;;;;;;4433430;27;658847;-71
2023/08/28 13:35:51;;;;;;;5.67;4.37;;;20.90;99.90;;;;;;4457773;27;659585;-69
2023/08/28 13:38:39;;;;;;;5.93;4.70;;;21.00;99.90;;;;;;4438659;27;658583;-70
2023/08/28 13:41:26;;;;;;;6.40;4.27;;;21.10;99.90;;;;;;4455161;27;658795;-70
2023/08/28 13:44:13;;;;;;;5.93;4.40;;;21.20;99.90;;;;;;4418938;28;658810;-70
2023/08/28 13:47:02;;;;;;;6.80;4.47;;;21.10;99.90;;;;;;4458287;27;658734;-70
2023/08/28 13:49:50;;;;;;;7.37;4.50;;;21.20;99.90;;;;;;4436342;27;659428;-70
2023/08/28 13:52:37;;;;;;;7.53;5.10;;;21.10;99.90;;;;;;4461078;27;659111;-70
2023/08/28 13:55:24;;;;;;;13.60;8.20;;;21.20;99.90;;;;;;4432662;27;659699;-70
2023/08/28 13:58:11;;;;;;;8.37;5.00;;;21.10;99.90;;;;;;4450171;27;659585;-70
2023/08/28 14:00:59;;;;;;;5.90;3.93;;;21.10;99.90;;;;;;4432756;27;659207;-70
2023/08/28 14:03:47;;;;;;;8.37;3.80;;;21.00;99.90;;;;;;4455934;27;659054;-71
2023/08/28 14:06:35;;;;;;;7.20;3.93;;;21.10;99.90;;;;;;4431936;27;659506;-70
2023/08/28 14:09:22;;;;;;;6.90;4.00;;;21.20;99.90;;;;;;4456071;27;657944;-71
2023/08/28 14:12:09;;;;;;;6.17;3.63;;;21.20;99.90;;;;;;4433369;27;659091;-70
2023/08/28 14:14:56;;;;;;;7.33;3.47;;;21.20;99.90;;;;;;4454107;27;659109;-70
2023/08/28 14:17:43;;;;;;;6.27;3.37;;;21.10;99.90;;;;;;4431004;27;658920;-70
2023/08/28 14:20:32;;;;;;;5.67;3.63;;;20.90;99.90;;;;;;4453967;27;658306;-70